createdAt,value
2022-08-21T00:01:54.126Z,2.03
2022-08-21T00:04:22.703Z,1.45
2022-08-21T00:06:57.378Z,1.95
2022-08-21T00:09:24.366Z,2.20
2022-08-21T00:11:51.574Z,1.60
2022-08-21T00:14:18.687Z,1.75
2022-08-21T00:16:45.790Z,2.00
2022-08-21T00:19:13.121Z,1.90
2022-08-21T00:21:40.845Z,1.98
2022-08-21T00:24:11.815Z,1.83
2022-08-21T00:26:38.800Z,2.13
2022-08-21T00:29:05.797Z,1.75
2022-08-21T00:31:32.802Z,2.53
2022-08-21T00:34:01.043Z,2.55
2022-08-21T00:36:29.253Z,1.73
2022-08-21T00:38:59.051Z,2.00
2022-08-21T00:41:37.833Z,1.98
2022-08-21T00:44:10.063Z,2.97
2022-08-21T00:46:38.915Z,2.30
2022-08-21T00:49:08.447Z,2.08
2022-08-21T00:52:00.691Z,1.92
2022-08-21T00:54:31.755Z,1.95
2022-08-21T00:57:08.123Z,1.85
2022-08-21T00:59:39.221Z,1.73
2022-08-21T01:02:10.980Z,2.08
2022-08-21T01:04:38.592Z,2.22
2022-08-21T01:07:06.230Z,1.70
2022-08-21T01:09:33.700Z,1.73
2022-08-21T01:12:01.361Z,1.95
2022-08-21T01:14:29.636Z,2.28
2022-08-21T01:16:58.804Z,2.22
2022-08-21T01:19:30.087Z,2.15
2022-08-21T01:21:57.675Z,2.22
2022-08-21T01:24:24.633Z,1.98
2022-08-21T01:26:52.898Z,2.15
2022-08-21T01:29:55.249Z,2.08
2022-08-21T01:32:22.452Z,1.77
2022-08-21T01:34:52.067Z,2.25
2022-08-21T01:37:22.427Z,1.67
2022-08-21T01:39:50.179Z,1.95
2022-08-21T01:42:17.192Z,2.10
2022-08-21T01:44:44.756Z,2.20
2022-08-21T01:47:15.807Z,2.10
2022-08-21T01:49:46.484Z,1.77
2022-08-21T01:52:13.905Z,2.10
2022-08-21T01:54:42.440Z,2.40
2022-08-21T01:57:11.299Z,2.53
2022-08-21T01:59:38.503Z,1.70
2022-08-21T02:02:06.336Z,1.77
2022-08-21T02:04:34.035Z,1.95
2022-08-21T02:07:02.155Z,2.00
2022-08-21T02:09:29.621Z,1.90
2022-08-21T02:11:57.618Z,1.90
2022-08-21T02:14:32.002Z,2.10
2022-08-21T02:17:03.367Z,1.65
2022-08-21T02:19:39.449Z,2.20
2022-08-21T02:22:09.787Z,1.77
2022-08-21T02:24:53.668Z,2.08
2022-08-21T02:27:26.140Z,1.58
2022-08-21T02:29:58.191Z,1.50
2022-08-21T02:32:26.748Z,1.80
2022-08-21T02:34:54.575Z,2.03
2022-08-21T02:37:21.861Z,2.00
2022-08-21T02:39:49.052Z,2.00
2022-08-21T02:42:16.173Z,2.88
2022-08-21T02:44:43.294Z,2.10
2022-08-21T02:47:10.201Z,1.80
2022-08-21T02:49:37.140Z,2.05
2022-08-21T02:52:06.743Z,2.08
2022-08-21T02:54:34.223Z,1.60
2022-08-21T02:57:01.146Z,1.65
2022-08-21T02:59:28.119Z,2.20
2022-08-21T03:01:56.472Z,2.47
2022-08-21T03:04:23.843Z,2.08
2022-08-21T03:06:50.761Z,1.80
2022-08-21T03:09:17.778Z,2.08
2022-08-21T03:11:44.878Z,1.90
2022-08-21T03:14:11.817Z,2.42
2022-08-21T03:16:38.828Z,1.77
2022-08-21T03:19:05.792Z,2.30
2022-08-21T03:21:32.785Z,1.73
2022-08-21T03:23:59.691Z,1.55
2022-08-21T03:26:31.837Z,1.80
2022-08-21T03:28:59.779Z,1.98
2022-08-21T03:31:31.736Z,1.67
2022-08-21T03:33:59.800Z,1.85
2022-08-21T03:36:27.094Z,1.80
2022-08-21T03:38:54.496Z,1.80
2022-08-21T03:41:21.664Z,1.70
2022-08-21T03:43:48.794Z,1.83
2022-08-21T03:46:15.967Z,1.85
2022-08-21T03:48:42.970Z,1.77
2022-08-21T03:51:10.227Z,1.80
2022-08-21T03:53:38.149Z,1.52
2022-08-21T03:56:06.399Z,1.60
2022-08-21T03:58:33.515Z,1.67
2022-08-21T04:01:04.239Z,2.33
2022-08-21T04:03:31.420Z,1.95
2022-08-21T04:05:58.883Z,1.55
2022-08-21T04:08:25.923Z,1.58
2022-08-21T04:10:57.580Z,1.50
2022-08-21T04:13:25.429Z,1.75
2022-08-21T04:15:52.431Z,1.58
2022-08-21T04:18:19.817Z,2.10
2022-08-21T04:20:52.463Z,1.50
2022-08-21T04:23:24.391Z,1.70
2022-08-21T04:25:54.149Z,1.60
2022-08-21T04:28:23.191Z,1.60
2022-08-21T04:30:52.823Z,1.85
2022-08-21T04:33:21.829Z,1.95
2022-08-21T04:35:51.315Z,1.58
2022-08-21T04:38:18.880Z,1.60
2022-08-21T04:40:46.371Z,1.60
2022-08-21T04:43:14.280Z,1.60
2022-08-21T04:45:49.005Z,1.70
2022-08-21T04:48:20.092Z,2.20
2022-08-21T04:51:01.845Z,2.00
2022-08-21T04:53:39.180Z,2.13
2022-08-21T04:56:32.275Z,1.60
2022-08-21T04:59:05.296Z,1.60
2022-08-21T05:01:36.686Z,1.85
2022-08-21T05:04:06.874Z,2.05
2022-08-21T05:06:41.808Z,2.33
2022-08-21T05:09:13.765Z,1.65
2022-08-21T05:11:41.876Z,1.83
2022-08-21T05:14:08.880Z,1.67
2022-08-21T05:16:37.657Z,1.60
2022-08-21T05:19:06.869Z,2.40
2022-08-21T05:21:36.407Z,1.67
2022-08-21T05:24:04.129Z,1.48
2022-08-21T05:26:34.052Z,1.90
2022-08-21T05:29:13.061Z,1.70
2022-08-21T05:31:40.244Z,2.15
2022-08-21T05:34:07.255Z,3.15
2022-08-21T05:36:34.792Z,1.80
2022-08-21T05:39:02.997Z,1.88
2022-08-21T05:41:29.881Z,2.05
2022-08-21T05:43:57.190Z,1.80
2022-08-21T05:46:24.470Z,1.88
2022-08-21T05:48:51.417Z,1.77
2022-08-21T05:51:18.573Z,1.70
2022-08-21T05:53:46.299Z,1.65
2022-08-21T05:56:14.525Z,2.00
2022-08-21T05:58:42.569Z,1.90
2022-08-21T06:01:10.298Z,2.67
2022-08-21T06:03:41.400Z,1.80
2022-08-21T06:06:08.809Z,2.13
2022-08-21T06:08:35.844Z,1.70
2022-08-21T06:11:05.144Z,1.85
2022-08-21T06:13:32.454Z,1.52
2022-08-21T06:16:16.446Z,1.88
2022-08-21T06:18:46.482Z,1.88
2022-08-21T06:21:14.520Z,1.70
2022-08-21T06:23:43.014Z,1.88
2022-08-21T06:26:11.714Z,2.00
2022-08-21T06:28:39.971Z,2.00
2022-08-21T06:31:20.228Z,1.83
2022-08-21T06:33:49.453Z,2.00
2022-08-21T06:36:16.823Z,2.03
2022-08-21T06:38:51.082Z,1.92
2022-08-21T06:41:26.543Z,2.25
2022-08-21T06:43:56.060Z,1.60
2022-08-21T06:46:25.417Z,2.42
2022-08-21T06:48:52.567Z,2.38
2022-08-21T06:51:20.030Z,1.90
2022-08-21T06:53:50.063Z,2.10
2022-08-21T06:56:17.249Z,2.42
2022-08-21T06:58:44.621Z,12.80
2022-08-21T07:01:12.051Z,2.67
2022-08-21T07:03:44.667Z,4.57
2022-08-21T07:06:12.865Z,3.55
2022-08-21T07:08:40.125Z,4.47
2022-08-21T07:11:21.314Z,3.40
2022-08-21T07:13:49.388Z,4.05
2022-08-21T07:16:16.295Z,4.07
2022-08-21T07:18:43.346Z,3.55
2022-08-21T07:21:10.597Z,7.07
2022-08-21T07:23:48.841Z,4.53
2022-08-21T07:26:21.618Z,4.90
2022-08-21T07:28:49.914Z,3.60
2022-08-21T07:31:19.588Z,4.38
2022-08-21T07:33:46.949Z,3.42
2022-08-21T07:36:14.904Z,4.93
2022-08-21T07:38:42.668Z,5.35
2022-08-21T07:41:20.771Z,3.70
2022-08-21T07:43:47.903Z,3.22
2022-08-21T07:46:15.578Z,3.47
2022-08-21T07:48:44.169Z,3.58
2022-08-21T07:51:15.302Z,5.15
2022-08-21T07:53:43.032Z,4.10
2022-08-21T07:56:11.980Z,5.10
2022-08-21T07:58:39.126Z,3.40
2022-08-21T08:01:08.037Z,4.18
2022-08-21T08:03:38.409Z,5.20
2022-08-21T08:06:06.129Z,3.50
2022-08-21T08:08:35.052Z,3.20
2022-08-21T08:11:02.616Z,2.78
2022-08-21T08:13:29.785Z,5.00
2022-08-21T08:15:57.416Z,3.75
2022-08-21T08:18:24.399Z,4.25
2022-08-21T08:20:51.551Z,5.68
2022-08-21T08:23:18.672Z,3.78
2022-08-21T08:25:45.979Z,3.75
2022-08-21T08:28:16.728Z,4.63
2022-08-21T08:30:46.650Z,12.43
2022-08-21T08:33:15.299Z,18.77
2022-08-21T08:35:46.826Z,12.40
2022-08-21T08:38:21.316Z,12.52
2022-08-21T08:41:14.302Z,11.60
2022-08-21T08:43:55.151Z,11.70
2022-08-21T08:46:40.382Z,9.23
2022-08-21T08:49:30.976Z,13.05
2022-08-21T08:52:28.732Z,12.32
2022-08-21T08:55:27.137Z,7.38
2022-08-21T08:57:56.155Z,4.65
2022-08-21T09:00:26.654Z,5.97
2022-08-21T09:02:58.332Z,4.90
2022-08-21T09:06:19.566Z,7.53
2022-08-21T09:09:14.494Z,7.70
2022-08-21T09:12:15.201Z,5.85
2022-08-21T09:15:07.788Z,5.00
2022-08-21T09:18:05.430Z,2.63
2022-08-21T09:20:49.103Z,2.38
2022-08-21T09:23:47.106Z,4.85
2022-08-21T09:26:17.339Z,2.33
2022-08-21T09:28:46.194Z,3.55
2022-08-21T09:31:38.395Z,2.90
2022-08-21T09:34:14.296Z,3.80
2022-08-21T09:36:51.316Z,2.42
2022-08-21T09:39:40.163Z,1.58
2022-08-21T09:42:11.265Z,3.20
2022-08-21T09:44:44.832Z,2.60
2022-08-21T09:47:16.128Z,2.72
2022-08-21T09:49:45.248Z,1.65
2022-08-21T09:52:23.292Z,3.42
2022-08-21T09:54:56.114Z,1.73
2022-08-21T09:57:39.515Z,1.73
2022-08-21T10:00:28.016Z,2.10
2022-08-21T10:02:55.212Z,1.65
2022-08-21T10:05:28.304Z,2.28
2022-08-21T10:07:55.351Z,1.77
2022-08-21T10:10:32.570Z,2.00
2022-08-21T10:13:24.167Z,1.73
2022-08-21T10:16:31.372Z,2.28
2022-08-21T10:19:39.285Z,3.00
2022-08-21T10:22:38.704Z,2.03
2022-08-21T10:25:56.281Z,2.90
2022-08-21T10:29:04.761Z,3.22
2022-08-21T10:31:56.921Z,1.88
2022-08-21T10:34:30.061Z,2.30
2022-08-21T10:37:36.833Z,1.98
2022-08-21T10:40:30.304Z,2.47
2022-08-21T10:43:40.332Z,2.42
2022-08-21T10:46:16.415Z,1.95
2022-08-21T10:49:34.797Z,2.20
2022-08-21T10:52:35.013Z,2.13
2022-08-21T10:55:32.013Z,1.83
2022-08-21T10:58:09.050Z,2.25
2022-08-21T11:00:57.895Z,1.55
2022-08-21T11:03:46.349Z,1.55
2022-08-21T11:06:28.242Z,2.05
2022-08-21T11:09:15.601Z,2.63
2022-08-21T11:12:10.991Z,1.65
2022-08-21T11:15:31.798Z,2.35
2022-08-21T11:18:24.517Z,1.20
2022-08-21T11:21:10.694Z,1.70
2022-08-21T11:24:27.682Z,2.10
2022-08-21T11:27:02.966Z,2.50
2022-08-21T11:29:42.566Z,3.00
2022-08-21T11:32:45.979Z,2.75
2022-08-21T11:36:05.085Z,2.95
2022-08-21T11:38:38.872Z,3.20
2022-08-21T11:41:26.341Z,1.83
2022-08-21T11:44:43.658Z,5.45
2022-08-21T11:47:26.950Z,4.43
2022-08-21T11:50:34.042Z,2.85
2022-08-21T11:53:33.772Z,2.47
2022-08-21T11:56:16.000Z,4.25
2022-08-21T11:59:10.789Z,4.70
2022-08-21T12:01:46.990Z,4.43
2022-08-21T12:04:35.583Z,3.35
2022-08-21T12:07:39.202Z,2.50
2022-08-21T12:10:16.051Z,5.15
2022-08-21T12:12:45.573Z,3.15
2022-08-21T12:15:26.498Z,1.30
2022-08-21T12:18:05.831Z,2.25
2022-08-21T12:20:50.945Z,2.83
2022-08-21T12:23:49.305Z,2.22
2022-08-21T12:26:53.337Z,1.50
2022-08-21T12:29:38.780Z,1.35
2022-08-21T12:32:11.865Z,1.52
2022-08-21T12:34:49.575Z,1.42
2022-08-21T12:37:42.834Z,5.43
2022-08-21T12:40:27.199Z,4.15
2022-08-21T12:42:59.324Z,2.78
2022-08-21T12:45:35.572Z,3.92
2022-08-21T12:48:36.576Z,7.32
2022-08-21T12:51:14.359Z,5.75
2022-08-21T12:53:52.417Z,6.35
2022-08-21T12:56:30.437Z,11.27
2022-08-21T12:59:12.981Z,19.92
2022-08-21T13:01:50.490Z,37.45
2022-08-21T13:04:23.710Z,18.95
2022-08-21T13:06:56.433Z,11.10
2022-08-21T13:09:31.706Z,4.97
2022-08-21T13:11:59.959Z,1.73
2022-08-21T13:14:45.352Z,3.35
2022-08-21T13:17:25.948Z,3.30
2022-08-21T13:20:05.112Z,4.38
2022-08-21T13:22:34.812Z,7.03
2022-08-21T13:25:07.174Z,3.55
2022-08-21T13:27:35.439Z,4.40
2022-08-21T13:30:15.559Z,6.47
2022-08-21T13:32:48.432Z,8.07
2022-08-21T13:35:28.876Z,5.15
2022-08-21T13:37:57.324Z,9.75
2022-08-21T13:40:36.647Z,6.43
2022-08-21T13:43:04.438Z,4.93
2022-08-21T13:45:34.056Z,2.83
2022-08-21T13:48:06.471Z,6.82
2022-08-21T13:50:37.553Z,7.43
2022-08-21T13:53:19.775Z,16.30
2022-08-21T13:55:46.722Z,7.55
2022-08-21T13:58:13.744Z,10.13
2022-08-21T14:00:52.747Z,2.88
2022-08-21T14:03:42.581Z,4.40
2022-08-21T14:06:26.829Z,6.43
2022-08-21T14:09:05.171Z,2.45
2022-08-21T14:11:37.175Z,5.35
2022-08-21T14:14:25.085Z,4.15
2022-08-21T14:17:00.990Z,2.83
2022-08-21T14:19:44.747Z,6.30
2022-08-21T14:22:48.446Z,16.35
2022-08-21T14:25:37.368Z,10.38
2022-08-21T14:28:32.868Z,10.63
2022-08-21T14:31:21.670Z,5.35
2022-08-21T14:33:49.629Z,6.75
2022-08-21T14:36:16.809Z,3.35
2022-08-21T14:38:45.537Z,7.75
2022-08-21T14:41:24.844Z,5.00
2022-08-21T14:43:59.864Z,7.88
2022-08-21T14:46:39.162Z,8.23
2022-08-21T14:49:28.891Z,11.82
2022-08-21T14:51:59.600Z,12.10
2022-08-21T14:54:32.833Z,19.45
2022-08-21T14:57:09.593Z,20.80
2022-08-21T14:59:39.741Z,18.80
2022-08-21T15:02:11.627Z,18.45
2022-08-21T15:04:39.040Z,11.25
2022-08-21T15:07:06.178Z,9.90
2022-08-21T15:09:33.194Z,6.75
2022-08-21T15:12:03.026Z,3.28
2022-08-21T15:14:35.675Z,4.90
2022-08-21T15:17:04.575Z,6.18
2022-08-21T15:19:31.951Z,3.88
2022-08-21T15:21:59.329Z,4.20
2022-08-21T15:24:26.938Z,3.10
2022-08-21T15:26:57.275Z,3.65
2022-08-21T15:29:24.335Z,8.55
2022-08-21T15:32:00.160Z,11.95
2022-08-21T15:34:32.908Z,14.30
2022-08-21T15:36:59.947Z,14.77
2022-08-21T15:39:31.283Z,8.00
2022-08-21T15:41:59.913Z,8.82
2022-08-21T15:44:35.664Z,6.10
2022-08-21T15:47:03.413Z,6.50
2022-08-21T15:49:30.365Z,4.05
2022-08-21T15:51:59.877Z,8.98
2022-08-21T15:54:26.867Z,19.90
2022-08-21T15:56:54.020Z,20.38
2022-08-21T15:59:23.439Z,12.02
2022-08-21T16:01:53.203Z,8.98
2022-08-21T16:04:27.838Z,13.93
2022-08-21T16:07:01.011Z,8.52
2022-08-21T16:09:32.373Z,13.65
2022-08-21T16:12:01.696Z,12.13
2022-08-21T16:14:31.509Z,9.40
2022-08-21T16:17:02.503Z,17.05
2022-08-21T16:19:29.992Z,15.65
2022-08-21T16:21:57.928Z,15.27
2022-08-21T16:24:24.950Z,18.23
2022-08-21T16:26:57.879Z,14.98
2022-08-21T16:29:34.383Z,11.07
2022-08-21T16:32:02.160Z,15.77
2022-08-21T16:34:29.362Z,16.45
2022-08-21T16:36:59.417Z,25.00
2022-08-21T16:39:26.918Z,29.70
2022-08-21T16:41:54.989Z,51.53
2022-08-21T16:44:23.336Z,24.40
2022-08-21T16:46:50.488Z,19.52
2022-08-21T16:49:17.710Z,10.18
2022-08-21T16:51:44.666Z,10.05
2022-08-21T16:54:16.553Z,8.77
2022-08-21T16:56:47.457Z,5.13
2022-08-21T16:59:15.149Z,5.80
2022-08-21T17:01:45.070Z,5.28
2022-08-21T17:04:12.298Z,3.75
2022-08-21T17:06:39.450Z,6.57
2022-08-21T17:09:06.710Z,6.07
2022-08-21T17:11:42.116Z,4.07
2022-08-21T17:14:23.351Z,2.35
2022-08-21T17:16:57.021Z,3.67
2022-08-21T17:19:24.099Z,5.13
2022-08-21T17:21:51.207Z,4.15
2022-08-21T17:24:18.611Z,4.38
2022-08-21T17:26:47.028Z,1.98
2022-08-21T17:29:16.170Z,3.00
2022-08-21T17:31:45.058Z,3.20
2022-08-21T17:34:14.796Z,2.95
2022-08-21T17:36:41.986Z,3.58
2022-08-21T17:39:09.948Z,2.47
2022-08-21T17:41:39.967Z,2.55
2022-08-21T17:44:13.305Z,3.55
2022-08-21T17:46:43.736Z,3.10
2022-08-21T17:49:11.799Z,2.70
2022-08-21T17:51:38.736Z,3.60
2022-08-21T17:54:05.913Z,1.90
2022-08-21T17:56:36.306Z,2.20
2022-08-21T17:59:05.937Z,3.25
2022-08-21T18:01:40.497Z,2.67
2022-08-21T18:04:07.508Z,2.00
2022-08-21T18:06:37.175Z,2.35
2022-08-21T18:09:05.263Z,2.25
2022-08-21T18:11:33.556Z,1.95
2022-08-21T18:14:07.349Z,2.60
2022-08-21T18:16:37.425Z,2.55
2022-08-21T18:19:11.782Z,2.38
2022-08-21T18:21:39.070Z,2.28
2022-08-21T18:24:06.528Z,2.03
2022-08-21T18:26:39.809Z,3.28
2022-08-21T18:29:13.412Z,2.33
2022-08-21T18:31:43.667Z,1.70
2022-08-21T18:34:20.087Z,1.48
2022-08-21T18:36:48.455Z,1.65
2022-08-21T18:39:35.580Z,2.17
2022-08-21T18:42:09.101Z,2.00
2022-08-21T18:44:36.719Z,2.25
2022-08-21T18:47:14.517Z,2.00
2022-08-21T18:49:41.823Z,2.70
2022-08-21T18:54:56.362Z,3.45
2022-08-21T18:57:29.579Z,1.17
2022-08-21T18:59:57.537Z,2.17
2022-08-21T19:02:25.782Z,1.77
2022-08-21T19:04:53.379Z,2.60
2022-08-21T19:07:20.450Z,2.83
2022-08-21T19:10:07.597Z,3.03
2022-08-21T19:12:39.102Z,2.85
2022-08-21T19:15:12.328Z,2.22
2022-08-21T19:17:41.144Z,2.80
2022-08-21T19:20:36.966Z,3.25
2022-08-21T19:23:10.876Z,2.35
2022-08-21T19:25:41.870Z,1.88
2022-08-21T19:28:16.084Z,2.55
2022-08-21T19:30:52.202Z,1.48
2022-08-21T19:33:29.516Z,2.15
2022-08-21T19:35:56.788Z,1.42
2022-08-21T19:38:26.838Z,1.77
2022-08-21T19:40:54.722Z,1.73
2022-08-21T19:43:23.771Z,2.75
2022-08-21T19:45:56.749Z,1.33
2022-08-21T19:48:26.014Z,1.67
2022-08-21T19:50:53.630Z,2.50
2022-08-21T19:53:21.153Z,1.77
2022-08-21T19:55:48.850Z,2.75
2022-08-21T19:58:41.308Z,2.03
2022-08-21T20:01:16.353Z,1.45
2022-08-21T20:03:58.232Z,1.77
2022-08-21T20:06:26.468Z,3.03
2022-08-21T20:08:55.321Z,2.35
2022-08-21T20:11:33.965Z,2.22
2022-08-21T20:14:02.315Z,2.00
2022-08-21T20:16:30.958Z,2.35
2022-08-21T20:18:58.070Z,1.10
2022-08-21T20:21:25.045Z,1.27
2022-08-21T20:23:53.271Z,1.45
2022-08-21T20:26:20.351Z,2.42
2022-08-21T20:28:50.542Z,2.47
2022-08-21T20:31:20.553Z,3.00
2022-08-21T20:33:49.628Z,2.17
2022-08-21T20:36:17.748Z,2.33
2022-08-21T20:38:45.031Z,1.85
2022-08-21T20:41:21.308Z,2.13
2022-08-21T20:43:58.746Z,2.95
2022-08-21T20:46:29.692Z,2.22
2022-08-21T20:48:56.942Z,2.33
2022-08-21T20:51:49.491Z,1.98
2022-08-21T20:54:43.961Z,1.55
2022-08-21T20:57:17.018Z,1.58
2022-08-21T20:59:57.003Z,2.13
2022-08-21T21:02:54.196Z,1.77
2022-08-21T21:05:28.136Z,1.95
2022-08-21T21:08:20.164Z,1.48
2022-08-21T21:11:19.200Z,1.35
2022-08-21T21:13:58.114Z,2.20
2022-08-21T21:16:54.550Z,2.08
2022-08-21T21:22:36.913Z,1.92
2022-08-21T21:25:25.310Z,1.67
2022-08-21T21:28:29.954Z,1.25
2022-08-21T21:30:57.767Z,1.85
2022-08-21T21:33:25.960Z,2.20
2022-08-21T21:36:14.651Z,2.92
2022-08-21T21:43:13.780Z,1.90
2022-08-21T21:46:20.496Z,1.30
2022-08-21T21:49:50.112Z,2.47
2022-08-21T21:53:01.101Z,2.30
2022-08-21T21:56:27.589Z,2.92
2022-08-21T21:59:31.628Z,1.50
2022-08-21T22:02:10.175Z,1.98
2022-08-21T22:04:57.797Z,2.58
2022-08-21T22:07:43.412Z,1.52
2022-08-21T22:10:30.509Z,2.25
2022-08-21T22:13:33.490Z,1.95
2022-08-21T22:16:07.564Z,1.88
2022-08-21T22:18:55.181Z,1.35
2022-08-21T22:21:37.533Z,2.28
2022-08-21T22:24:28.616Z,1.70
2022-08-21T22:27:17.131Z,1.83
2022-08-21T22:29:50.746Z,1.48
2022-08-21T22:32:37.479Z,1.60
2022-08-21T22:35:09.563Z,2.53
2022-08-21T22:37:41.786Z,1.48
2022-08-21T22:40:20.325Z,1.50
2022-08-21T22:43:07.343Z,2.35
2022-08-21T22:46:07.015Z,1.20
2022-08-21T22:48:40.110Z,1.65
2022-08-21T22:51:32.504Z,1.83
2022-08-21T22:54:01.236Z,3.08
2022-08-21T22:56:45.885Z,2.63
2022-08-21T23:00:00.562Z,1.45
2022-08-21T23:02:52.250Z,2.42
2022-08-21T23:05:34.292Z,1.52
2022-08-21T23:08:24.701Z,1.33
2022-08-21T23:11:05.174Z,1.98
2022-08-21T23:13:46.704Z,2.35
2022-08-21T23:16:31.649Z,3.65
2022-08-21T23:19:38.134Z,1.13
2022-08-21T23:22:38.794Z,1.70
2022-08-21T23:25:40.379Z,1.55
2022-08-21T23:28:39.501Z,3.15
2022-08-21T23:31:19.689Z,1.42
2022-08-21T23:34:20.119Z,1.60
2022-08-21T23:37:23.874Z,2.10
2022-08-21T23:40:38.725Z,1.63
2022-08-21T23:43:41.708Z,1.40
2022-08-21T23:46:34.037Z,1.63
2022-08-21T23:49:44.307Z,1.40
2022-08-21T23:52:48.711Z,2.28
2022-08-21T23:56:08.247Z,1.20
2022-08-21T23:59:22.756Z,2.05
